createdAt,value
2023-04-15T00:04:29.623Z,1.00
2023-04-15T00:09:32.413Z,1.65
2023-04-15T00:14:37.080Z,2.85
2023-04-15T00:19:41.109Z,2.00
2023-04-15T00:24:43.965Z,4.07
2023-04-15T00:29:46.646Z,2.45
2023-04-15T00:34:50.152Z,3.45
2023-04-15T00:39:52.974Z,0.75
2023-04-15T00:44:55.712Z,1.98
2023-04-15T00:49:58.640Z,1.85
2023-04-15T00:55:01.901Z,2.78
2023-04-15T01:00:08.370Z,2.85
2023-04-15T01:05:11.194Z,3.85
2023-04-15T01:10:13.949Z,2.00
2023-04-15T01:15:18.306Z,2.88
2023-04-15T01:20:21.064Z,3.13
2023-04-15T01:25:42.965Z,1.93
2023-04-15T01:30:45.953Z,2.90
2023-04-15T01:35:50.780Z,1.23
2023-04-15T01:40:53.722Z,3.07
2023-04-15T01:45:57.664Z,2.50
2023-04-15T01:51:02.591Z,3.58
2023-04-15T01:56:07.680Z,1.67
2023-04-15T02:01:13.519Z,2.92
2023-04-15T02:06:18.695Z,3.13
2023-04-15T02:11:23.512Z,5.32
2023-04-15T02:16:27.484Z,4.03
2023-04-15T02:21:31.560Z,4.30
2023-04-15T02:26:35.944Z,5.13
2023-04-15T02:31:41.502Z,3.63
2023-04-15T02:36:47.295Z,2.22
2023-04-15T02:41:52.416Z,4.38
2023-04-15T02:46:56.606Z,3.80
2023-04-15T02:52:01.016Z,7.30
2023-04-15T02:57:07.120Z,3.70
2023-04-15T03:02:11.621Z,4.53
2023-04-15T03:07:15.772Z,5.45
2023-04-15T03:12:19.682Z,4.85
2023-04-15T03:22:27.705Z,3.25
2023-04-15T03:27:32.511Z,2.90
2023-04-15T03:32:38.674Z,2.85
2023-04-15T03:37:43.957Z,4.07
2023-04-15T03:47:52.035Z,2.42
2023-04-15T03:52:56.461Z,1.83
2023-04-15T03:58:00.437Z,1.60
2023-04-15T04:08:08.447Z,1.40
2023-04-15T04:18:15.998Z,3.63
2023-04-15T04:23:20.170Z,1.33
2023-04-15T04:28:24.103Z,3.17
2023-04-15T04:38:31.898Z,3.00
2023-04-15T04:43:35.818Z,1.95
2023-04-15T04:48:39.755Z,0.77
2023-04-15T04:53:43.756Z,1.30
2023-04-15T04:58:47.758Z,0.88
2023-04-15T05:03:51.908Z,0.88
2023-04-15T05:08:57.054Z,1.40
2023-04-15T05:14:02.630Z,1.98
2023-04-15T05:19:06.692Z,1.83
2023-04-15T05:24:10.744Z,1.60
2023-04-15T05:29:14.769Z,1.98
2023-04-15T05:34:19.140Z,1.00
2023-04-15T05:39:23.095Z,3.30
2023-04-15T05:44:27.235Z,2.05
2023-04-15T05:54:35.211Z,1.60
2023-04-15T05:59:39.267Z,1.88
2023-04-15T06:04:43.483Z,1.40
2023-04-15T06:09:47.432Z,2.13
2023-04-15T06:14:51.639Z,1.35
2023-04-15T06:19:56.271Z,1.50
2023-04-15T06:25:00.485Z,1.48
2023-04-15T06:30:05.050Z,1.58
2023-04-15T06:35:09.672Z,1.55
2023-04-15T06:45:18.134Z,1.20
2023-04-15T06:50:22.102Z,1.02
2023-04-15T06:55:26.252Z,2.38
2023-04-15T07:00:30.984Z,1.80
2023-04-15T07:05:34.930Z,1.77
2023-04-15T07:10:39.080Z,0.50
2023-04-15T07:15:42.895Z,2.97
2023-04-15T07:20:47.343Z,2.13
2023-04-15T07:25:51.961Z,2.10
2023-04-15T07:30:57.674Z,1.90
2023-04-15T07:36:02.018Z,1.38
2023-04-15T07:46:10.112Z,1.40
2023-04-15T07:51:14.024Z,2.58
2023-04-15T07:56:18.462Z,1.80
2023-04-15T08:01:23.057Z,2.00
2023-04-15T08:06:27.771Z,2.83
2023-04-15T08:11:32.005Z,2.90
2023-04-15T08:16:36.318Z,2.33
2023-04-15T08:21:41.438Z,1.90
2023-04-15T08:26:49.281Z,2.05
2023-04-15T08:31:56.136Z,2.78
2023-04-15T08:37:00.139Z,3.22
2023-04-15T08:42:07.626Z,2.43
2023-04-15T08:47:14.325Z,2.13
2023-04-15T08:52:18.630Z,2.13
2023-04-15T08:57:27.876Z,2.67
2023-04-15T09:02:32.303Z,2.00
2023-04-15T09:07:36.993Z,1.08
2023-04-15T09:12:40.993Z,2.40
2023-04-15T09:17:45.549Z,2.37
2023-04-15T09:22:50.362Z,2.15
2023-04-15T09:28:03.899Z,1.65
2023-04-15T09:33:11.306Z,2.00
2023-04-15T09:38:15.212Z,1.90
2023-04-15T09:43:19.357Z,1.40
2023-04-15T09:48:27.350Z,1.77
2023-04-15T09:53:35.498Z,2.00
2023-04-15T09:58:41.972Z,2.50
2023-04-15T10:03:46.256Z,2.55
2023-04-15T10:08:50.221Z,2.30
2023-04-15T10:13:55.216Z,2.60
2023-04-15T10:19:02.527Z,1.70
2023-04-15T10:24:13.173Z,1.55
2023-04-15T10:29:17.344Z,2.00
2023-04-15T10:34:22.338Z,2.67
2023-04-15T10:39:35.185Z,2.50
2023-04-15T10:44:43.976Z,2.30
2023-04-15T10:49:58.999Z,2.25
2023-04-15T10:55:23.969Z,1.92
2023-04-15T11:00:32.467Z,1.80
2023-04-15T11:05:42.944Z,2.13
2023-04-15T11:10:46.843Z,1.20
2023-04-15T11:15:52.271Z,1.60
2023-04-15T11:21:07.045Z,1.90
2023-04-15T11:26:12.592Z,1.60
2023-04-15T11:31:18.447Z,0.85
2023-04-15T11:36:27.489Z,2.20
2023-04-15T11:41:31.519Z,1.02
2023-04-15T11:46:35.684Z,3.67
2023-04-15T11:51:39.824Z,2.43
2023-04-15T11:56:42.872Z,1.92
2023-04-15T12:01:48.032Z,1.02
2023-04-15T12:06:50.758Z,1.50
2023-04-15T12:11:57.847Z,2.25
2023-04-15T12:17:05.737Z,1.00
2023-04-15T12:22:13.670Z,1.50
2023-04-15T12:27:17.352Z,1.83
2023-04-15T12:32:21.382Z,2.10
2023-04-15T12:37:24.351Z,1.33
2023-04-15T12:42:27.763Z,1.63
2023-04-15T12:47:30.669Z,2.08
2023-04-15T12:52:34.802Z,2.17
2023-04-15T12:57:37.737Z,2.53
2023-04-15T13:02:40.513Z,2.05
2023-04-15T13:07:43.460Z,2.35
2023-04-15T13:12:47.414Z,3.60
2023-04-15T13:17:50.531Z,3.53
2023-04-15T13:22:53.961Z,2.85
2023-04-15T13:27:57.978Z,2.03
2023-04-15T13:33:01.060Z,1.67
2023-04-15T13:38:09.033Z,3.75
2023-04-15T13:43:12.084Z,2.70
2023-04-15T13:48:14.953Z,2.97
2023-04-15T13:53:17.720Z,2.08
2023-04-15T13:58:20.725Z,2.10
2023-04-15T14:03:23.497Z,2.45
2023-04-15T14:08:26.433Z,2.30
2023-04-15T14:13:29.457Z,1.95
2023-04-15T14:18:33.902Z,1.98
2023-04-15T14:23:36.717Z,1.85
2023-04-15T14:28:39.967Z,2.95
2023-04-15T14:33:43.188Z,2.47
2023-04-15T14:38:47.510Z,2.72
2023-04-15T14:43:52.453Z,3.15
2023-04-15T14:48:55.184Z,2.55
2023-04-15T14:53:58.242Z,2.90
2023-04-15T14:59:01.380Z,2.72
2023-04-15T15:04:04.649Z,2.60
2023-04-15T15:09:07.558Z,3.67
2023-04-15T15:14:10.432Z,4.22
2023-04-15T15:19:13.142Z,4.93
2023-04-15T15:24:15.841Z,3.97
2023-04-15T15:29:18.604Z,4.32
2023-04-15T15:34:21.497Z,4.10
2023-04-15T15:39:24.852Z,4.30
2023-04-15T15:44:27.694Z,3.47
2023-04-15T15:49:30.523Z,3.47
2023-04-15T15:54:33.293Z,3.08
2023-04-15T15:59:36.174Z,5.57
2023-04-15T16:04:39.846Z,6.00
2023-04-15T16:09:43.034Z,4.25
2023-04-15T16:14:47.582Z,5.63
2023-04-15T16:19:58.669Z,5.20
2023-04-15T16:25:06.561Z,5.72
2023-04-15T16:30:10.255Z,5.18
2023-04-15T16:35:12.962Z,4.20
2023-04-15T16:40:15.877Z,6.15
2023-04-15T16:45:21.850Z,3.92
2023-04-15T16:50:25.125Z,3.80
2023-04-15T16:55:27.950Z,4.85
2023-04-15T17:00:31.637Z,4.20
2023-04-15T17:05:34.461Z,3.65
2023-04-15T17:10:37.375Z,4.03
2023-04-15T17:15:41.093Z,4.25
2023-04-15T17:21:01.645Z,4.93
2023-04-15T17:26:06.563Z,3.70
2023-04-15T17:31:10.509Z,5.15
2023-04-15T17:36:33.474Z,6.50
2023-04-15T17:41:57.772Z,5.20
2023-04-15T17:47:00.450Z,4.80
2023-04-15T17:52:23.132Z,4.40
2023-04-15T17:57:46.698Z,6.63
2023-04-15T18:03:09.413Z,6.10
2023-04-15T18:08:32.349Z,5.00
2023-04-15T18:13:55.194Z,4.93
2023-04-15T18:19:18.374Z,4.60
2023-04-15T18:24:21.423Z,4.30
2023-04-15T18:29:24.483Z,3.95
2023-04-15T18:34:27.409Z,4.43
2023-04-15T18:39:30.394Z,2.33
2023-04-15T18:44:33.449Z,3.88
2023-04-15T18:49:36.506Z,3.47
2023-04-15T18:54:39.827Z,3.92
2023-04-15T18:59:43.053Z,4.17
2023-04-15T19:04:45.887Z,4.13
2023-04-15T19:09:48.655Z,4.90
2023-04-15T19:14:51.982Z,5.15
2023-04-15T19:19:54.737Z,5.97
2023-04-15T19:24:57.897Z,6.30
2023-04-15T19:30:00.655Z,6.85
2023-04-15T19:35:03.428Z,7.18
2023-04-15T19:40:07.250Z,6.47
2023-04-15T19:45:10.349Z,5.93
2023-04-15T19:50:13.360Z,6.95
2023-04-15T19:55:16.161Z,6.80
2023-04-15T20:00:18.923Z,7.53
2023-04-15T20:05:21.766Z,6.65
2023-04-15T20:10:24.594Z,5.57
2023-04-15T20:15:27.619Z,6.60
2023-04-15T20:20:30.345Z,7.03
2023-04-15T20:25:33.190Z,12.90
2023-04-15T20:30:36.156Z,9.10
2023-04-15T20:35:39.409Z,7.82
2023-04-15T20:40:42.212Z,10.55
2023-04-15T20:45:45.111Z,8.53
2023-04-15T20:50:47.951Z,8.63
2023-04-15T20:55:50.851Z,7.55
2023-04-15T21:00:55.261Z,7.50
2023-04-15T21:05:58.110Z,6.68
2023-04-15T21:11:01.042Z,5.40
2023-04-15T21:16:03.899Z,5.82
2023-04-15T21:21:06.650Z,7.28
2023-04-15T21:26:09.680Z,6.45
2023-04-15T21:31:12.418Z,6.20
2023-04-15T21:36:15.226Z,5.85
2023-04-15T21:41:18.311Z,4.80
2023-04-15T21:46:24.919Z,5.72
2023-04-15T21:51:28.091Z,5.85
2023-04-15T21:56:30.821Z,6.72
2023-04-15T22:01:33.671Z,7.13
2023-04-15T22:06:36.495Z,6.05
2023-04-15T22:11:39.325Z,5.50
2023-04-15T22:16:42.140Z,6.53
2023-04-15T22:21:50.300Z,5.38
2023-04-15T22:26:53.033Z,4.38
2023-04-15T22:31:55.874Z,4.53
2023-04-15T22:36:58.659Z,5.80
2023-04-15T22:42:02.393Z,5.70
2023-04-15T22:52:09.100Z,4.40
2023-04-15T22:57:14.932Z,3.45
2023-04-15T23:02:17.958Z,4.10
2023-04-15T23:07:20.785Z,2.33
2023-04-15T23:12:23.461Z,2.65
2023-04-15T23:17:27.038Z,2.72
2023-04-15T23:27:32.429Z,3.45
2023-04-15T23:32:35.304Z,3.43
2023-04-15T23:37:38.138Z,2.57
2023-04-15T23:42:40.976Z,2.00
2023-04-15T23:47:43.758Z,1.95
2023-04-15T23:52:46.637Z,3.13
2023-04-15T23:57:49.463Z,2.70
